sensor_id;sensor_type;location;lat;lon;timestamp;pressure;altitude;pressure_sealevel;temperature;humidity
22261;BME280;11299;43.202;27.920;2023-06-22T00:00:29;140260.88;;;20.36;100.00
22261;BME280;11299;43.202;27.920;2023-06-22T00:02:54;140648.88;;;20.47;100.00
22261;BME280;11299;43.202;27.920;2023-06-22T00:05:20;141665.25;;;20.15;100.00
22261;BME280;11299;43.202;27.920;2023-06-22T00:07:45;142842.22;;;20.51;100.00
22261;BME280;11299;43.202;27.920;2023-06-22T00:10:11;143437.53;;;19.95;100.00
22261;BME280;11299;43.202;27.920;2023-06-22T00:12:37;144081.72;;;19.60;100.00
22261;BME280;11299;43.202;27.920;2023-06-22T00:15:03;144940.38;;;20.15;100.00
22261;BME280;11299;43.202;27.920;2023-06-22T00:17:28;145564.94;;;19.72;100.00
22261;BME280;11299;43.202;27.920;2023-06-22T00:19:54;145923.94;;;19.70;100.00
22261;BME280;11299;43.202;27.920;2023-06-22T00:22:21;146380.72;;;20.09;100.00
22261;BME280;11299;43.202;27.920;2023-06-22T00:24:54;146750.84;;;20.11;100.00
22261;BME280;11299;43.202;27.920;2023-06-22T00:27:20;146572.88;;;19.37;100.00
22261;BME280;11299;43.202;27.920;2023-06-22T00:29:45;147088.28;;;20.00;100.00
22261;BME280;11299;43.202;27.920;2023-06-22T00:32:11;147139.28;;;20.21;100.00
22261;BME280;11299;43.202;27.920;2023-06-22T00:34:36;147127.09;;;20.16;100.00
22261;BME280;11299;43.202;27.920;2023-06-22T00:37:02;146981.47;;;19.56;100.00
22261;BME280;11299;43.202;27.920;2023-06-22T00:39:27;146996.03;;;19.62;100.00
22261;BME280;11299;43.202;27.920;2023-06-22T00:41:53;147020.25;;;19.72;100.00
22261;BME280;11299;43.202;27.920;2023-06-22T00:44:18;146964.47;;;19.49;100.00
22261;BME280;11299;43.202;27.920;2023-06-22T00:46:44;147825.03;;;20.04;100.00
22261;BME280;11299;43.202;27.920;2023-06-22T00:49:09;147484.75;;;18.63;100.00
22261;BME280;11299;43.202;27.920;2023-06-22T00:51:35;147768.63;;;18.31;100.00
22261;BME280;11299;43.202;27.920;2023-06-22T00:54:03;148181.84;;;20.01;100.00
22261;BME280;11299;43.202;27.920;2023-06-22T00:56:30;148501.94;;;19.83;100.00
22261;BME280;11299;43.202;27.920;2023-06-22T00:58:58;148373.19;;;19.30;100.00
22261;BME280;11299;43.202;27.920;2023-06-22T01:01:24;148348.69;;;19.20;100.00
22261;BME280;11299;43.202;27.920;2023-06-22T01:03:50;148508.09;;;19.85;100.00
22261;BME280;11299;43.202;27.920;2023-06-22T01:06:21;148931.22;;;20.09;100.00
22261;BME280;11299;43.202;27.920;2023-06-22T01:08:57;148418.59;;;19.48;100.00
22261;BME280;11299;43.202;27.920;2023-06-22T01:11:30;148139.09;;;19.83;100.00
22261;BME280;11299;43.202;27.920;2023-06-22T01:16:31;147653.03;;;19.33;100.00
22261;BME280;11299;43.202;27.920;2023-06-22T01:19:19;146979.00;;;19.55;100.00
22261;BME280;11299;43.202;27.920;2023-06-22T01:21:51;146632.19;;;19.62;100.00
22261;BME280;11299;43.202;27.920;2023-06-22T01:24:26;146005.81;;;20.04;100.00
22261;BME280;11299;43.202;27.920;2023-06-22T01:29:51;144691.69;;;19.11;100.00
22261;BME280;11299;43.202;27.920;2023-06-22T01:32:18;144193.53;;;20.07;100.00
22261;BME280;11299;43.202;27.920;2023-06-22T01:34:45;144006.75;;;19.28;100.00
22261;BME280;11299;43.202;27.920;2023-06-22T01:37:11;142625.50;;;19.59;100.00
22261;BME280;11299;43.202;27.920;2023-06-22T01:39:36;142264.50;;;19.60;100.00
22261;BME280;11299;43.202;27.920;2023-06-22T01:42:03;140589.69;;;20.21;100.00
22261;BME280;11299;43.202;27.920;2023-06-22T01:44:30;138962.63;;;19.45;100.00
22261;BME280;11299;43.202;27.920;2023-06-22T01:46:56;137701.97;;;20.30;100.00
22261;BME280;11299;43.202;27.920;2023-06-22T01:49:22;136100.81;;;19.63;100.00
22261;BME280;11299;43.202;27.920;2023-06-22T01:51:48;135045.03;;;19.78;100.00
22261;BME280;11299;43.202;27.920;2023-06-22T01:54:14;134809.09;;;20.35;100.00
22261;BME280;11299;43.202;27.920;2023-06-22T01:56:39;133962.63;;;19.81;100.00
22261;BME280;11299;43.202;27.920;2023-06-22T01:59:11;132849.72;;;19.69;100.00
22261;BME280;11299;43.202;27.920;2023-06-22T02:01:45;131159.09;;;20.25;100.00
22261;BME280;11299;43.202;27.920;2023-06-22T02:04:26;130451.19;;;20.33;100.00
22261;BME280;11299;43.202;27.920;2023-06-22T02:06:56;128637.72;;;18.61;100.00
22261;BME280;11299;43.202;27.920;2023-06-22T02:09:25;127433.06;;;19.77;100.00
22261;BME280;11299;43.202;27.920;2023-06-22T02:11:52;124619.97;;;20.16;100.00
22261;BME280;11299;43.202;27.920;2023-06-22T02:14:21;125358.75;;;18.48;100.00
22261;BME280;11299;43.202;27.920;2023-06-22T02:16:47;126032.41;;;19.99;100.00
22261;BME280;11299;43.202;27.920;2023-06-22T02:19:12;125426.50;;;20.56;100.00
22261;BME280;11299;43.202;27.920;2023-06-22T02:21:41;124235.59;;;20.05;100.00
22261;BME280;11299;43.202;27.920;2023-06-22T02:24:06;121800.50;;;20.53;100.00
22261;BME280;11299;43.202;27.920;2023-06-22T02:26:32;120355.63;;;20.54;100.00
22261;BME280;11299;43.202;27.920;2023-06-22T02:28:58;117117.72;;;20.63;100.00
22261;BME280;11299;43.202;27.920;2023-06-22T02:31:23;119587.06;;;20.31;100.00
22261;BME280;11299;43.202;27.920;2023-06-22T02:33:56;121700.13;;;20.03;100.00
22261;BME280;11299;43.202;27.920;2023-06-22T02:36:23;121690.09;;;19.98;100.00
22261;BME280;11299;43.202;27.920;2023-06-22T02:38:49;122916.41;;;20.69;100.00
22261;BME280;11299;43.202;27.920;2023-06-22T02:41:15;123267.25;;;20.63;100.00
22261;BME280;11299;43.202;27.920;2023-06-22T02:43:47;122892.13;;;20.56;100.00
22261;BME280;11299;43.202;27.920;2023-06-22T02:46:13;122196.53;;;20.71;100.00
22261;BME280;11299;43.202;27.920;2023-06-22T02:48:40;119928.72;;;20.21;100.00
22261;BME280;11299;43.202;27.920;2023-06-22T02:51:05;119266.91;;;20.52;100.00
22261;BME280;11299;43.202;27.920;2023-06-22T02:53:31;117497.50;;;20.72;100.00
22261;BME280;11299;43.202;27.920;2023-06-22T02:55:57;116335.63;;;20.31;100.00
22261;BME280;11299;43.202;27.920;2023-06-22T02:58:23;113187.84;;;20.86;100.00
22261;BME280;11299;43.202;27.920;2023-06-22T03:00:49;109946.78;;;20.90;100.00
22261;BME280;11299;43.202;27.920;2023-06-22T03:03:18;107075.84;;;20.98;100.00
22261;BME280;11299;43.202;27.920;2023-06-22T03:05:43;107427.56;;;20.93;100.00
22261;BME280;11299;43.202;27.920;2023-06-22T03:08:09;108042.72;;;20.33;100.00
22261;BME280;11299;43.202;27.920;2023-06-22T03:10:34;109595.06;;;20.95;100.00
22261;BME280;11299;43.202;27.920;2023-06-22T03:13:00;111692.25;;;20.57;100.00
22261;BME280;11299;43.202;27.920;2023-06-22T03:15:25;108184.34;;;21.13;100.00
22261;BME280;11299;43.202;27.920;2023-06-22T03:17:51;106717.09;;;20.99;100.00
22261;BME280;11299;43.202;27.920;2023-06-22T03:20:17;103080.84;;;20.79;100.00
22261;BME280;11299;43.202;27.920;2023-06-22T03:22:42;99518.69;;;21.01;100.00
22261;BME280;11299;43.202;27.920;2023-06-22T03:25:09;98437.94;;;21.00;100.00
22261;BME280;11299;43.202;27.920;2023-06-22T03:27:36;99826.63;;;20.70;100.00
22261;BME280;11299;43.202;27.920;2023-06-22T03:30:02;95880.94;;;20.75;100.00
22261;BME280;11299;43.202;27.920;2023-06-22T03:32:27;88769.41;;;21.20;100.00
22261;BME280;11299;43.202;27.920;2023-06-22T03:34:53;77617.66;;;20.82;100.00
22261;BME280;11299;43.202;27.920;2023-06-22T03:37:19;76636.66;;;21.54;100.00
22261;BME280;11299;43.202;27.920;2023-06-22T03:39:44;74144.13;;;21.63;100.00
22261;BME280;11299;43.202;27.920;2023-06-22T03:42:10;61265.34;;;21.30;100.00
22261;BME280;11299;43.202;27.920;2023-06-22T03:44:36;49225.44;;;21.80;100.00
22261;BME280;11299;43.202;27.920;2023-06-22T03:47:03;52384.28;;;21.37;100.00
22261;BME280;11299;43.202;27.920;2023-06-22T03:49:29;40325.97;;;21.25;100.00
22261;BME280;11299;43.202;27.920;2023-06-22T03:51:54;40654.19;;;20.88;100.00
22261;BME280;11299;43.202;27.920;2023-06-22T03:54:20;39669.75;;;22.03;100.00
22261;BME280;11299;43.202;27.920;2023-06-22T03:56:45;36489.59;;;22.11;100.00
22261;BME280;11299;43.202;27.920;2023-06-22T03:59:11;36477.66;;;21.92;100.00
22261;BME280;11299;43.202;27.920;2023-06-22T04:01:36;66285.16;;;21.60;100.00
22261;BME280;11299;43.202;27.920;2023-06-22T04:04:02;67020.16;;;21.80;100.00
22261;BME280;11299;43.202;27.920;2023-06-22T04:06:27;63117.56;;;21.99;100.00
22261;BME280;11299;43.202;27.920;2023-06-22T04:08:53;49258.19;;;22.20;100.00
22261;BME280;11299;43.202;27.920;2023-06-22T04:11:18;48156.66;;;21.75;100.00
22261;BME280;11299;43.202;27.920;2023-06-22T04:13:44;42177.84;;;22.43;100.00
22261;BME280;11299;43.202;27.920;2023-06-22T04:16:09;32615.97;;;22.40;100.00
22261;BME280;11299;43.202;27.920;2023-06-22T04:18:35;20254.03;;;22.11;100.00
22261;BME280;11299;43.202;27.920;2023-06-22T04:21:01;-3602.34;;;22.36;100.00
22261;BME280;11299;43.202;27.920;2023-06-22T04:23:27;-21375.09;;;22.06;100.00
22261;BME280;11299;43.202;27.920;2023-06-22T04:25:52;-21393.78;;;22.67;100.00
22261;BME280;11299;43.202;27.920;2023-06-22T04:28:18;-21390.34;;;22.56;100.00
22261;BME280;11299;43.202;27.920;2023-06-22T04:30:43;-21397.50;;;22.79;100.00
22261;BME280;11299;43.202;27.920;2023-06-22T04:33:14;-21372.28;;;21.97;100.00
22261;BME280;11299;43.202;27.920;2023-06-22T04:35:39;-21354.22;;;21.39;100.00
22261;BME280;11299;43.202;27.920;2023-06-22T04:38:07;-21410.88;;;23.22;100.00
22261;BME280;11299;43.202;27.920;2023-06-22T04:40:32;-21412.28;;;23.26;100.00
22261;BME280;11299;43.202;27.920;2023-06-22T04:42:58;-21397.50;;;22.79;100.00
22261;BME280;11299;43.202;27.920;2023-06-22T04:45:27;-21400.63;;;22.89;100.00
22261;BME280;11299;43.202;27.920;2023-06-22T04:47:52;-21422.09;;;23.58;100.00
22261;BME280;11299;43.202;27.920;2023-06-22T04:50:18;-21410.56;;;23.21;100.00
22261;BME280;11299;43.202;27.920;2023-06-22T04:52:46;-21430.16;;;23.84;100.00
22261;BME280;11299;43.202;27.920;2023-06-22T04:55:12;-21436.06;;;24.03;100.00
22261;BME280;11299;43.202;27.920;2023-06-22T04:57:37;-21397.03;;;22.77;100.00
22261;BME280;11299;43.202;27.920;2023-06-22T05:00:05;-21437.94;;;24.09;100.00
22261;BME280;11299;43.202;27.920;2023-06-22T05:02:40;-21442.91;;;24.25;100.00
22261;BME280;11299;43.202;27.920;2023-06-22T05:05:06;-21442.28;;;24.23;100.00
22261;BME280;11299;43.202;27.920;2023-06-22T05:07:35;-21439.97;;;24.16;100.00
22261;BME280;11299;43.202;27.920;2023-06-22T05:10:04;-21434.22;;;23.97;100.00
22261;BME280;11299;43.202;27.920;2023-06-22T05:12:30;-21436.38;;;24.04;100.00
22261;BME280;11299;43.202;27.920;2023-06-22T05:14:56;-21421.47;;;23.56;100.00
22261;BME280;11299;43.202;27.920;2023-06-22T05:17:21;-21445.09;;;24.33;100.00
22261;BME280;11299;43.202;27.920;2023-06-22T05:19:47;-21452.69;;;24.57;100.00
22261;BME280;11299;43.202;27.920;2023-06-22T05:22:15;-21407.16;;;23.10;100.00
22261;BME280;11299;43.202;27.920;2023-06-22T05:24:42;-21457.22;;;24.72;100.00
22261;BME280;11299;43.202;27.920;2023-06-22T05:27:08;-21427.06;;;23.74;100.00
22261;BME280;11299;43.202;27.920;2023-06-22T05:29:33;-21450.53;;;24.50;100.00
22261;BME280;11299;43.202;27.920;2023-06-22T05:31:59;-21428.91;;;23.80;100.00
22261;BME280;11299;43.202;27.920;2023-06-22T05:34:24;-21448.34;;;24.43;100.00
22261;BME280;11299;43.202;27.920;2023-06-22T05:36:51;-21465.13;;;24.97;100.00
22261;BME280;11299;43.202;27.920;2023-06-22T05:39:16;-21415.56;;;23.37;100.00
22261;BME280;11299;43.202;27.920;2023-06-22T05:41:42;-21457.22;;;24.72;100.00
22261;BME280;11299;43.202;27.920;2023-06-22T05:44:08;-21475.38;;;25.31;100.00
22261;BME280;11299;43.202;27.920;2023-06-22T05:46:34;-21481.28;;;25.50;100.00
22261;BME280;11299;43.202;27.920;2023-06-22T05:49:00;-21470.25;;;25.14;100.00
22261;BME280;11299;43.202;27.920;2023-06-22T05:51:25;-21469.47;;;25.11;100.00
22261;BME280;11299;43.202;27.920;2023-06-22T05:53:50;-21488.09;;;25.72;100.00
22261;BME280;11299;43.202;27.920;2023-06-22T05:56:16;-21489.34;;;25.76;100.00
22261;BME280;11299;43.202;27.920;2023-06-22T05:58:42;-21483.59;;;25.57;100.00
22261;BME280;11299;43.202;27.920;2023-06-22T06:01:07;-21499.44;;;26.08;100.00
22261;BME280;11299;43.202;27.920;2023-06-22T06:03:33;-21506.72;;;26.32;100.00
22261;BME280;11299;43.202;27.920;2023-06-22T06:05:58;-21514.94;;;26.59;100.00
22261;BME280;11299;43.202;27.920;2023-06-22T06:08:25;-21523.00;;;26.85;100.00
22261;BME280;11299;43.202;27.920;2023-06-22T06:10:50;-21521.59;;;26.80;100.00
22261;BME280;11299;43.202;27.920;2023-06-22T06:13:18;-21523.94;;;26.88;100.00
22261;BME280;11299;43.202;27.920;2023-06-22T06:15:44;-21528.28;;;27.02;100.00
22261;BME280;11299;43.202;27.920;2023-06-22T06:18:09;-21528.28;;;27.02;100.00
22261;BME280;11299;43.202;27.920;2023-06-22T06:20:35;-21510.59;;;26.45;100.00
22261;BME280;11299;43.202;27.920;2023-06-22T06:23:00;-21526.25;;;26.95;100.00
22261;BME280;11299;43.202;27.920;2023-06-22T06:25:26;-21529.81;;;27.07;100.00
22261;BME280;11299;43.202;27.920;2023-06-22T06:27:52;-21535.09;;;27.24;100.00
22261;BME280;11299;43.202;27.920;2023-06-22T06:30:20;-21521.75;;;26.81;100.00
22261;BME280;11299;43.202;27.920;2023-06-22T06:32:46;-21531.06;;;27.11;100.00
22261;BME280;11299;43.202;27.920;2023-06-22T06:35:14;-21549.19;;;27.70;100.00
22261;BME280;11299;43.202;27.920;2023-06-22T06:37:42;-21545.63;;;27.58;100.00
22261;BME280;11299;43.202;27.920;2023-06-22T06:40:09;-21558.03;;;27.99;100.00
22261;BME280;11299;43.202;27.920;2023-06-22T06:42:42;-21539.59;;;27.39;100.00
22261;BME280;11299;43.202;27.920;2023-06-22T06:45:12;-21558.31;;;28.00;100.00
22261;BME280;11299;43.202;27.920;2023-06-22T06:47:39;-21562.81;;;28.14;100.00
22261;BME280;11299;43.202;27.920;2023-06-22T06:50:05;-21532.75;;;27.17;100.00
22261;BME280;11299;43.202;27.920;2023-06-22T06:52:31;-21563.13;;;28.15;100.00
22261;BME280;11299;43.202;27.920;2023-06-22T06:54:57;-21536.78;;;27.30;100.00
22261;BME280;11299;43.202;27.920;2023-06-22T06:57:22;-21547.63;;;27.65;100.00
22261;BME280;11299;43.202;27.920;2023-06-22T06:59:48;-21549.66;;;27.71;100.00
22261;BME280;11299;43.202;27.920;2023-06-22T07:02:15;-21552.75;;;27.81;100.00
22261;BME280;11299;43.202;27.920;2023-06-22T07:04:41;-21532.59;;;27.16;100.00
22261;BME280;11299;43.202;27.920;2023-06-22T07:07:07;-21555.22;;;27.89;100.00
22261;BME280;11299;43.202;27.920;2023-06-22T07:09:32;-21530.44;;;27.09;100.00
22261;BME280;11299;43.202;27.920;2023-06-22T07:11:58;-21555.84;;;27.91;100.00
22261;BME280;11299;43.202;27.920;2023-06-22T07:14:23;-21557.72;;;27.98;100.00
22261;BME280;11299;43.202;27.920;2023-06-22T07:16:49;-21533.53;;;27.19;100.00
22261;BME280;11299;43.202;27.920;2023-06-22T07:19:14;-21544.22;;;27.54;100.00
22261;BME280;11299;43.202;27.920;2023-06-22T07:21:40;-21565.75;;;28.24;100.00
22261;BME280;11299;43.202;27.920;2023-06-22T07:24:06;-21545.31;;;27.57;100.00
22261;BME280;11299;43.202;27.920;2023-06-22T07:26:32;-21518.81;;;26.71;100.00
22261;BME280;11299;43.202;27.920;2023-06-22T07:28:57;-21567.47;;;28.29;100.00
22261;BME280;11299;43.202;27.920;2023-06-22T07:31:26;-21567.94;;;28.31;100.00
22261;BME280;11299;43.202;27.920;2023-06-22T07:33:52;-21558.63;;;28.01;100.00
22261;BME280;11299;43.202;27.920;2023-06-22T07:36:17;-21567.63;;;28.30;100.00
22261;BME280;11299;43.202;27.920;2023-06-22T07:38:43;-21573.50;;;28.49;100.00
22261;BME280;11299;43.202;27.920;2023-06-22T07:41:09;-21565.75;;;28.24;100.00
22261;BME280;11299;43.202;27.920;2023-06-22T07:43:34;-21536.63;;;27.29;100.00
22261;BME280;11299;43.202;27.920;2023-06-22T07:46:03;-21565.44;;;28.23;100.00
22261;BME280;11299;43.202;27.920;2023-06-22T07:48:29;-21573.81;;;28.50;100.00
22261;BME280;11299;43.202;27.920;2023-06-22T07:50:54;-21550.59;;;27.74;100.00
22261;BME280;11299;43.202;27.920;2023-06-22T07:53:21;-21510.59;;;26.45;100.00
22261;BME280;11299;43.202;27.920;2023-06-22T07:55:47;-21570.88;;;28.40;100.00
22261;BME280;11299;43.202;27.920;2023-06-22T07:58:12;-21538.50;;;27.35;100.00
22261;BME280;11299;43.202;27.920;2023-06-22T08:00:38;-21552.13;;;27.79;100.00
22261;BME280;11299;43.202;27.920;2023-06-22T08:03:03;-21561.41;;;28.10;100.00
22261;BME280;11299;43.202;27.920;2023-06-22T08:05:31;-21563.75;;;28.17;100.00
22261;BME280;11299;43.202;27.920;2023-06-22T08:07:56;-21562.66;;;28.14;100.00
22261;BME280;11299;43.202;27.920;2023-06-22T08:10:22;-21560.50;;;28.07;100.00
22261;BME280;11299;43.202;27.920;2023-06-22T08:12:47;-21562.50;;;28.13;100.00
22261;BME280;11299;43.202;27.920;2023-06-22T08:15:13;-21574.41;;;28.52;100.00
22261;BME280;11299;43.202;27.920;2023-06-22T08:17:38;-21563.13;;;28.15;100.00
22261;BME280;11299;43.202;27.920;2023-06-22T08:20:05;-21578.28;;;28.64;100.00
22261;BME280;11299;43.202;27.920;2023-06-22T08:22:43;-21528.28;;;27.02;100.00
22261;BME280;11299;43.202;27.920;2023-06-22T08:25:09;-21560.97;;;28.08;100.00
22261;BME280;11299;43.202;27.920;2023-06-22T08:27:35;-21579.69;;;28.69;100.00
22261;BME280;11299;43.202;27.920;2023-06-22T08:30:01;-21534.16;;;27.21;100.00
22261;BME280;11299;43.202;27.920;2023-06-22T08:32:28;-21577.53;;;28.62;100.00
22261;BME280;11299;43.202;27.920;2023-06-22T08:34:57;-21592.22;;;29.10;100.00
22261;BME280;11299;43.202;27.920;2023-06-22T08:37:23;-21585.56;;;28.88;100.00
22261;BME280;11299;43.202;27.920;2023-06-22T08:39:59;-21587.13;;;28.93;100.00
22261;BME280;11299;43.202;27.920;2023-06-22T08:42:26;-21590.81;;;29.05;100.00
22261;BME280;11299;43.202;27.920;2023-06-22T08:44:52;-21599.19;;;29.32;100.00
22261;BME280;11299;43.202;27.920;2023-06-22T08:47:18;-21585.25;;;28.87;100.00
22261;BME280;11299;43.202;27.920;2023-06-22T08:49:43;-21591.44;;;29.07;100.00
22261;BME280;11299;43.202;27.920;2023-06-22T08:52:09;-21587.41;;;28.94;100.00
22261;BME280;11299;43.202;27.920;2023-06-22T08:54:35;-21576.13;;;28.57;100.00
22261;BME280;11299;43.202;27.920;2023-06-22T08:57:01;-21579.38;;;28.68;100.00
22261;BME280;11299;43.202;27.920;2023-06-22T08:59:27;-21598.25;;;29.29;100.00
22261;BME280;11299;43.202;27.920;2023-06-22T09:01:52;-21598.72;;;29.31;100.00
22261;BME280;11299;43.202;27.920;2023-06-22T09:04:18;-21595.63;;;29.21;100.00
22261;BME280;11299;43.202;27.920;2023-06-22T09:06:43;-21597.63;;;29.27;100.00
22261;BME280;11299;43.202;27.920;2023-06-22T09:09:12;-21608.59;;;29.63;100.00
22261;BME280;11299;43.202;27.920;2023-06-22T09:11:37;-21608.75;;;29.63;100.00
22261;BME280;11299;43.202;27.920;2023-06-22T09:14:03;-21594.84;;;29.18;100.00
22261;BME280;11299;43.202;27.920;2023-06-22T09:16:29;-21602.13;;;29.42;100.00
22261;BME280;11299;43.202;27.920;2023-06-22T09:18:54;-21571.63;;;28.43;100.00
22261;BME280;11299;43.202;27.920;2023-06-22T09:21:20;-21586.50;;;28.91;100.00
22261;BME280;11299;43.202;27.920;2023-06-22T09:23:45;-21583.09;;;28.80;100.00
22261;BME280;11299;43.202;27.920;2023-06-22T09:26:15;-21558.31;;;28.00;100.00
22261;BME280;11299;43.202;27.920;2023-06-22T09:28:41;-21583.41;;;28.81;100.00
22261;BME280;11299;43.202;27.920;2023-06-22T09:31:06;-21567.00;;;28.28;100.00
22261;BME280;11299;43.202;27.920;2023-06-22T09:33:32;-21566.06;;;28.25;100.00
22261;BME280;11299;43.202;27.920;2023-06-22T09:35:57;-21527.34;;;26.99;100.00
22261;BME280;11299;43.202;27.920;2023-06-22T09:38:23;-21564.97;;;28.21;100.00
22261;BME280;11299;43.202;27.920;2023-06-22T09:40:48;-21559.56;;;28.04;100.00
22261;BME280;11299;43.202;27.920;2023-06-22T09:43:14;-21581.84;;;28.76;100.00
22261;BME280;11299;43.202;27.920;2023-06-22T09:45:39;-21566.06;;;28.25;100.00
22261;BME280;11299;43.202;27.920;2023-06-22T09:48:05;-21569.63;;;28.36;100.00
22261;BME280;11299;43.202;27.920;2023-06-22T09:50:30;-21584.16;;;28.84;100.00
22261;BME280;11299;43.202;27.920;2023-06-22T09:52:56;-21580.63;;;28.72;100.00
22261;BME280;11299;43.202;27.920;2023-06-22T09:55:22;-21579.53;;;28.68;100.00
22261;BME280;11299;43.202;27.920;2023-06-22T09:57:47;-21611.53;;;29.73;100.00
22261;BME280;11299;43.202;27.920;2023-06-22T10:00:14;-21620.34;;;30.01;100.00
22261;BME280;11299;43.202;27.920;2023-06-22T10:02:44;-21614.47;;;29.82;100.00
22261;BME280;11299;43.202;27.920;2023-06-22T10:05:09;-21635.97;;;30.52;100.00
22261;BME280;11299;43.202;27.920;2023-06-22T10:07:35;-21649.53;;;30.96;100.00
22261;BME280;11299;43.202;27.920;2023-06-22T10:10:06;-21638.44;;;30.60;100.00
22261;BME280;11299;43.202;27.920;2023-06-22T10:12:31;-21658.19;;;31.24;100.00
22261;BME280;11299;43.202;27.920;2023-06-22T10:14:57;-21641.50;;;30.70;100.00
22261;BME280;11299;43.202;27.920;2023-06-22T10:17:23;-21648.94;;;30.94;100.00
22261;BME280;11299;43.202;27.920;2023-06-22T10:19:48;-21634.09;;;30.46;100.00
22261;BME280;11299;43.202;27.920;2023-06-22T10:22:13;-21638.28;;;30.59;100.00
22261;BME280;11299;43.202;27.920;2023-06-22T10:24:39;-21640.75;;;30.68;100.00
22261;BME280;11299;43.202;27.920;2023-06-22T10:27:10;-21660.03;;;31.30;100.00
22261;BME280;11299;43.202;27.920;2023-06-22T10:29:36;-21657.88;;;31.23;100.00
22261;BME280;11299;43.202;27.920;2023-06-22T10:32:01;-21662.19;;;31.37;100.00
22261;BME280;11299;43.202;27.920;2023-06-22T10:34:27;-21658.97;;;31.27;100.00
22261;BME280;11299;43.202;27.920;2023-06-22T10:36:52;-21680.72;;;31.98;100.00
22261;BME280;11299;43.202;27.920;2023-06-22T10:39:18;-21660.50;;;31.32;100.00
22261;BME280;11299;43.202;27.920;2023-06-22T10:41:44;-21651.88;;;31.04;100.00
22261;BME280;11299;43.202;27.920;2023-06-22T10:44:09;-21650.47;;;30.99;100.00
22261;BME280;11299;43.202;27.920;2023-06-22T10:46:34;-21654.47;;;31.12;100.00
22261;BME280;11299;43.202;27.920;2023-06-22T10:49:03;-21646.47;;;30.86;100.00
22261;BME280;11299;43.202;27.920;2023-06-22T10:51:28;-21626.69;;;30.22;100.00
22261;BME280;11299;43.202;27.920;2023-06-22T10:53:54;-21596.84;;;29.25;100.00
22261;BME280;11299;43.202;27.920;2023-06-22T10:56:19;-21620.50;;;30.02;100.00
22261;BME280;11299;43.202;27.920;2023-06-22T10:58:45;-21618.03;;;29.94;100.00
22261;BME280;11299;43.202;27.920;2023-06-22T11:01:11;-21627.47;;;30.24;100.00
22261;BME280;11299;43.202;27.920;2023-06-22T11:03:36;-21627.16;;;30.23;100.00
22261;BME280;11299;43.202;27.920;2023-06-22T11:06:02;-21639.66;;;30.64;100.00
22261;BME280;11299;43.202;27.920;2023-06-22T11:08:28;-21637.19;;;30.56;100.00
22261;BME280;11299;43.202;27.920;2023-06-22T11:10:53;-21627.16;;;30.23;100.00
22261;BME280;11299;43.202;27.920;2023-06-22T11:13:18;-21599.63;;;29.34;100.00
22261;BME280;11299;43.202;27.920;2023-06-22T11:15:44;-21646.63;;;30.87;100.00
22261;BME280;11299;43.202;27.920;2023-06-22T11:18:09;-21640.59;;;30.67;100.00
22261;BME280;11299;43.202;27.920;2023-06-22T11:20:35;-21633.31;;;30.43;100.00
22261;BME280;11299;43.202;27.920;2023-06-22T11:23:04;-21603.66;;;29.47;100.00
22261;BME280;11299;43.202;27.920;2023-06-22T11:25:30;-21612.63;;;29.76;100.00
22261;BME280;11299;43.202;27.920;2023-06-22T11:27:56;-21609.06;;;29.64;100.00
22261;BME280;11299;43.202;27.920;2023-06-22T11:30:21;-21633.19;;;30.43;100.00
22261;BME280;11299;43.202;27.920;2023-06-22T11:32:47;-21615.25;;;29.85;100.00
22261;BME280;11299;43.202;27.920;2023-06-22T11:35:13;-21605.66;;;29.53;100.00
22261;BME280;11299;43.202;27.920;2023-06-22T11:37:38;-21610.31;;;29.68;100.00
22261;BME280;11299;43.202;27.920;2023-06-22T11:40:04;-21644.28;;;30.79;100.00
22261;BME280;11299;43.202;27.920;2023-06-22T11:42:31;-21616.81;;;29.90;100.00
22261;BME280;11299;43.202;27.920;2023-06-22T11:44:57;-21652.31;;;31.05;100.00
22261;BME280;11299;43.202;27.920;2023-06-22T11:47:22;-21653.09;;;31.08;100.00
22261;BME280;11299;43.202;27.920;2023-06-22T11:49:48;-21649.53;;;30.96;100.00
22261;BME280;11299;43.202;27.920;2023-06-22T11:52:13;-21654.19;;;31.11;100.00
22261;BME280;11299;43.202;27.920;2023-06-22T11:54:39;-21664.66;;;31.45;100.00
22261;BME280;11299;43.202;27.920;2023-06-22T11:57:04;-21647.38;;;30.89;100.00
22261;BME280;11299;43.202;27.920;2023-06-22T11:59:30;-21645.22;;;30.82;100.00
22261;BME280;11299;43.202;27.920;2023-06-22T12:01:55;-21674.22;;;31.77;100.00
22261;BME280;11299;43.202;27.920;2023-06-22T12:04:21;-21666.84;;;31.53;100.00
22261;BME280;11299;43.202;27.920;2023-06-22T12:06:46;-21665.28;;;31.47;100.00
22261;BME280;11299;43.202;27.920;2023-06-22T12:09:12;-21667.75;;;31.56;100.00
22261;BME280;11299;43.202;27.920;2023-06-22T12:11:39;-21621.13;;;30.04;100.00
22261;BME280;11299;43.202;27.920;2023-06-22T12:14:04;-21648.63;;;30.93;100.00
22261;BME280;11299;43.202;27.920;2023-06-22T12:16:30;-21651.56;;;31.03;100.00
22261;BME280;11299;43.202;27.920;2023-06-22T12:18:55;-21637.81;;;30.58;100.00
22261;BME280;11299;43.202;27.920;2023-06-22T12:21:21;-21623.28;;;30.11;100.00
22261;BME280;11299;43.202;27.920;2023-06-22T12:23:46;-21626.53;;;30.21;100.00
22261;BME280;11299;43.202;27.920;2023-06-22T12:26:11;-21618.81;;;29.96;100.00
22261;BME280;11299;43.202;27.920;2023-06-22T12:28:37;-21611.22;;;29.72;100.00
22261;BME280;11299;43.202;27.920;2023-06-22T12:31:02;-21621.59;;;30.05;100.00